Time;durP1;ratioP1;P1;durP2;ratioP2;P2;SDS_P1;SDS_P2;PMS_P1;PMS_P2;Temp;Humidity;BMP_temperature;BMP_pressure;BME280_temperature;BME280_humidity;BME280_pressure;Samples;Min_cycle;Max_cycle;Signal;HPM_P1;HPM_P2
2022/11/14 00:02:11;;;;;;;14.53;10.10;;;;;;;8.66;85.63;102190.97;6041536;29;20235;-71
2022/11/14 00:05:50;;;;;;;15.10;10.37;;;;;;;8.64;86.68;102183.94;6038905;29;20285;-72
2022/11/14 00:09:30;;;;;;;12.73;9.30;;;;;;;8.57;85.85;102182.59;6037548;29;20913;-72
2022/11/14 00:13:09;;;;;;;17.20;10.67;;;;;;;8.59;85.57;102180.69;6033770;29;20601;-71
2022/11/14 00:16:49;;;;;;;14.63;10.13;;;;;;;8.53;85.89;102178.38;6038700;29;20230;-72
2022/11/14 00:20:30;;;;;;;17.07;10.90;;;;;;;8.52;86.48;102169.44;6040888;29;20834;-71
2022/11/14 00:24:09;;;;;;;13.00;10.37;;;;;;;8.62;85.74;102162.56;6041554;29;20508;-71
2022/11/14 00:27:48;;;;;;;15.37;11.30;;;;;;;8.29;86.68;102164.56;6040420;29;20234;-72
2022/11/14 00:31:28;;;;;;;12.80;10.03;;;;;;;8.44;86.04;102152.03;6031171;29;20257;-71
2022/11/14 00:35:08;;;;;;;15.37;10.60;;;;;;;8.53;86.11;102160.41;6042225;29;20229;-71
2022/11/14 00:38:52;;;;;;;15.57;10.40;;;;;;;8.50;85.85;102146.28;6039150;29;20265;-72
2022/11/14 00:42:31;;;;;;;12.27;10.20;;;;;;;8.54;85.45;102146.03;6041674;29;20226;-72
2022/11/14 00:46:11;;;;;;;12.37;9.43;;;;;;;8.56;85.79;102141.41;6035123;29;20233;-71
2022/11/14 00:49:51;;;;;;;19.50;12.77;;;;;;;8.52;85.79;102141.69;6039237;29;20651;-70
2022/11/14 00:53:30;;;;;;;16.97;12.93;;;;;;;8.47;85.33;102131.22;6043826;29;20806;-72
2022/11/14 00:57:11;;;;;;;15.47;10.10;;;;;;;8.41;85.56;102128.03;6039664;29;20646;-73
2022/11/14 01:00:51;;;;;;;15.57;10.00;;;;;;;8.40;85.85;102126.31;6043184;29;21179;-72
2022/11/14 01:04:30;;;;;;;14.37;8.90;;;;;;;8.47;85.29;102117.78;6033257;29;20242;-72
2022/11/14 01:08:10;;;;;;;14.27;9.93;;;;;;;8.38;85.80;102114.78;6044796;29;20238;-72
2022/11/14 01:11:49;;;;;;;12.53;10.93;;;;;;;8.29;86.07;102104.59;6017406;29;20245;-72
2022/11/14 01:15:30;;;;;;;14.63;10.27;;;;;;;8.34;85.83;102114.13;6037451;29;20301;-71
2022/11/14 01:19:09;;;;;;;13.63;11.03;;;;;;;8.24;86.36;102110.19;6027312;29;20629;-72
2022/11/14 01:22:49;;;;;;;15.27;10.37;;;;;;;8.28;85.68;102103.72;6035789;29;20256;-72
2022/11/14 01:26:28;;;;;;;24.30;14.73;;;;;;;8.19;86.36;102109.63;6028991;29;20242;-72
2022/11/14 01:30:08;;;;;;;15.33;11.40;;;;;;;8.19;86.90;102098.88;6050501;29;20516;-72
2022/11/14 01:33:51;;;;;;;18.07;10.77;;;;;;;8.28;85.60;102103.72;6048474;29;20260;-71
2022/11/14 01:37:30;;;;;;;17.53;10.10;;;;;;;8.29;85.90;102085.78;6035913;29;20237;-72
2022/11/14 01:41:12;;;;;;;14.43;12.20;;;;;;;8.11;85.70;102089.53;6033358;29;20238;-71
2022/11/14 01:44:53;;;;;;;17.33;10.30;;;;;;;8.07;86.65;102083.50;6043951;29;20234;-72
2022/11/14 01:48:39;;;;;;;14.60;9.47;;;;;;;8.15;86.85;102075.84;6040670;29;20253;-72
2022/11/14 01:52:23;;;;;;;20.27;11.47;;;;;;;8.18;85.90;102064.91;6037451;29;20245;-71
2022/11/14 01:56:05;;;;;;;16.03;8.80;;;;;;;8.18;86.49;102056.84;6036035;29;20234;-71
2022/11/14 01:59:51;;;;;;;18.30;11.10;;;;;;;7.98;87.36;102054.50;6039735;29;20245;-71
2022/11/14 02:03:31;;;;;;;19.03;11.90;;;;;;;8.10;87.23;102045.69;6037545;29;20234;-71
2022/11/14 02:07:12;;;;;;;18.33;10.90;;;;;;;8.08;87.15;102044.91;6029245;29;20233;-72
2022/11/14 02:10:53;;;;;;;17.23;12.70;;;;;;;8.07;87.08;102038.69;6032431;29;20242;-72
2022/11/14 02:14:33;;;;;;;18.37;12.43;;;;;;;7.98;87.31;102033.88;6035482;29;20269;-72
2022/11/14 02:18:13;;;;;;;20.37;13.10;;;;;;;8.15;86.99;102019.44;6048989;29;21181;-71
2022/11/14 02:21:53;;;;;;;17.60;10.87;;;;;;;8.09;87.30;102023.34;6040089;29;20257;-72
2022/11/14 02:25:33;;;;;;;11.73;9.60;;;;;;;8.13;87.17;102015.09;6044418;29;20238;-72
2022/11/14 02:29:12;;;;;;;17.53;11.17;;;;;;;8.22;86.00;102017.25;6032060;29;20234;-72
2022/11/14 02:32:51;;;;;;;19.17;10.70;;;;;;;8.27;86.46;102010.66;6032425;29;20249;-72
2022/11/14 02:36:30;;;;;;;16.47;11.73;;;;;;;8.04;86.48;102013.84;6032836;29;20690;-72
2022/11/14 02:40:12;;;;;;;22.23;13.10;;;;;;;7.92;87.16;101999.34;6040085;29;20302;-70
2022/11/14 02:43:51;;;;;;;20.43;15.13;;;;;;;7.95;87.18;101996.47;6044632;29;20242;-72
2022/11/14 02:47:30;;;;;;;14.47;11.80;;;;;;;8.12;86.51;102000.81;6030145;29;20233;-71
2022/11/14 02:51:10;;;;;;;18.87;11.30;;;;;;;8.11;86.43;101990.16;6031095;29;20539;-71
2022/11/14 02:54:49;;;;;;;16.57;12.27;;;;;;;8.12;87.18;101987.38;6044539;29;20233;-72
2022/11/14 02:58:30;;;;;;;15.27;10.93;;;;;;;7.98;87.57;101985.56;6043085;29;20225;-71
2022/11/14 03:02:09;;;;;;;18.77;11.63;;;;;;;7.87;87.49;101979.94;6033663;29;20710;-72
2022/11/14 03:05:52;;;;;;;15.90;9.60;;;;;;;7.90;87.61;101963.69;6037640;29;20249;-73
2022/11/14 03:09:31;;;;;;;15.23;11.50;;;;;;;7.93;87.66;101951.84;6037612;29;20238;-72
2022/11/14 03:13:10;;;;;;;22.50;11.77;;;;;;;7.94;87.54;101957.16;6037483;29;20222;-71
2022/11/14 03:16:53;;;;;;;19.43;12.17;;;;;;;7.92;87.42;101955.53;6035329;29;20244;-72
2022/11/14 03:20:34;;;;;;;24.43;12.57;;;;;;;7.92;86.64;101942.97;6043495;29;20237;-71
2022/11/14 03:24:13;;;;;;;14.50;11.07;;;;;;;7.91;86.99;101943.03;6034211;29;20504;-72
2022/11/14 03:27:53;;;;;;;17.50;12.00;;;;;;;7.95;86.66;101941.88;6040172;29;20241;-72
2022/11/14 03:31:32;;;;;;;21.37;12.40;;;;;;;7.96;86.57;101935.59;6029214;29;20233;-72
2022/11/14 03:35:13;;;;;;;16.07;11.27;;;;;;;7.90;86.50;101936.81;6046388;29;20233;-72
2022/11/14 03:38:52;;;;;;;18.73;12.37;;;;;;;7.93;86.85;101933.94;6048417;29;20688;-72
2022/11/14 03:42:33;;;;;;;16.00;11.00;;;;;;;8.02;86.68;101932.53;6038230;29;20232;-71
2022/11/14 03:46:12;;;;;;;15.70;9.97;;;;;;;8.04;87.03;101922.53;6035481;29;20226;-71
2022/11/14 03:49:52;;;;;;;18.97;10.30;;;;;;;8.05;86.28;101918.91;6048415;29;20237;-72
2022/11/14 03:53:32;;;;;;;20.53;14.10;;;;;;;7.92;86.55;101916.13;6046048;29;20258;-72
2022/11/14 03:57:12;;;;;;;16.97;11.73;;;;;;;7.86;86.84;101918.31;6041735;29;20507;-72
2022/11/14 04:00:51;;;;;;;17.63;11.10;;;;;;;7.92;86.93;101920.63;6042707;29;20243;-72
2022/11/14 04:04:31;;;;;;;18.27;12.10;;;;;;;7.78;86.93;101913.38;6042653;29;20262;-72
2022/11/14 04:08:10;;;;;;;16.33;10.47;;;;;;;7.68;87.49;101908.66;6045418;29;20563;-72
2022/11/14 04:11:51;;;;;;;18.87;11.47;;;;;;;7.81;87.24;101906.97;6036722;29;20237;-72
2022/11/14 04:15:31;;;;;;;19.23;12.83;;;;;;;7.83;86.99;101905.06;6047751;29;20254;-71
2022/11/14 04:19:10;;;;;;;24.43;14.37;;;;;;;7.78;86.93;101908.03;6041403;29;20249;-72
2022/11/14 04:22:49;;;;;;;15.67;12.87;;;;;;;7.78;87.42;101894.59;6043944;29;20268;-72
2022/11/14 04:26:29;;;;;;;24.17;11.93;;;;;;;7.81;87.43;101885.50;6036244;29;20245;-71
2022/11/14 04:30:11;;;;;;;17.27;11.20;;;;;;;7.74;87.69;101889.53;6046267;29;20541;-72
2022/11/14 04:33:51;;;;;;;16.67;11.37;;;;;;;7.86;87.03;101881.56;6051324;29;20260;-72
2022/11/14 04:37:30;;;;;;;15.50;11.43;;;;;;;7.89;86.65;101877.84;6046035;29;20253;-72
2022/11/14 04:41:09;;;;;;;20.90;14.47;;;;;;;7.85;86.95;101873.63;6031855;29;20242;-72
2022/11/14 04:44:49;;;;;;;16.37;11.60;;;;;;;7.70;86.92;101869.19;6049845;29;20226;-72
2022/11/14 04:48:29;;;;;;;17.20;12.23;;;;;;;7.87;87.47;101860.97;6048091;29;20234;-72
2022/11/14 04:52:08;;;;;;;20.37;12.20;;;;;;;7.91;86.20;101862.50;6036999;29;20639;-72
2022/11/14 04:55:48;;;;;;;15.13;10.73;;;;;;;7.85;86.64;101862.88;6032104;29;20238;-73
2022/11/14 04:59:27;;;;;;;17.03;10.97;;;;;;;7.92;86.23;101864.25;6037777;29;20245;-72
2022/11/14 05:03:06;;;;;;;17.40;10.67;;;;;;;8.00;86.12;101860.13;6042349;29;20234;-72
2022/11/14 05:06:47;;;;;;;22.43;14.20;;;;;;;7.91;86.33;101862.50;6035269;29;20233;-72
2022/11/14 05:10:27;;;;;;;21.13;13.13;;;;;;;7.84;86.93;101856.63;6044929;29;20551;-72
2022/11/14 05:14:08;;;;;;;16.23;10.17;;;;;;;7.87;86.27;101850.22;6030179;29;20544;-72
2022/11/14 05:17:47;;;;;;;18.20;12.30;;;;;;;7.84;86.84;101845.91;6045064;29;20236;-72
2022/11/14 05:21:27;;;;;;;17.57;11.87;;;;;;;7.99;86.83;101847.66;6034674;29;20246;-72
2022/11/14 05:25:09;;;;;;;15.50;10.93;;;;;;;8.03;85.81;101846.50;6049552;29;20529;-71
2022/11/14 05:28:48;;;;;;;19.23;12.60;;;;;;;7.84;86.39;101837.84;6049925;29;20237;-71
2022/11/14 05:32:28;;;;;;;15.67;11.07;;;;;;;7.89;86.48;101834.88;6040313;29;20233;-72
2022/11/14 05:36:09;;;;;;;19.80;12.67;;;;;;;7.98;86.30;101829.81;6040899;29;20225;-72
2022/11/14 05:39:49;;;;;;;15.37;11.17;;;;;;;7.83;86.61;101829.91;6041312;29;20229;-72
2022/11/14 05:43:30;;;;;;;17.27;10.13;;;;;;;7.68;87.36;101829.03;6047161;29;20239;-72
2022/11/14 05:47:10;;;;;;;19.03;12.70;;;;;;;7.81;87.00;101819.28;6039069;29;20237;-72
2022/11/14 05:50:49;;;;;;;17.23;12.23;;;;;;;7.80;87.44;101822.91;6040036;29;20226;-72
2022/11/14 05:54:28;;;;;;;18.60;12.40;;;;;;;7.78;87.32;101838.25;6033910;29;20683;-71
2022/11/14 05:58:07;;;;;;;21.53;12.13;;;;;;;7.84;87.03;101832.47;6035933;29;20241;-71
2022/11/14 06:01:48;;;;;;;21.97;12.10;;;;;;;7.75;86.55;101832.22;6015473;29;20237;-71
2022/11/14 06:05:28;;;;;;;19.63;13.33;;;;;;;7.87;87.62;101832.31;6042185;29;20242;-72
2022/11/14 06:09:08;;;;;;;20.63;13.77;;;;;;;7.89;86.51;101827.72;6020621;29;22091;-72
2022/11/14 06:12:48;;;;;;;17.83;11.83;;;;;;;7.95;87.25;101832.69;6035399;29;20249;-72
2022/11/14 06:16:27;;;;;;;22.90;12.37;;;;;;;7.96;86.39;101839.81;6032998;29;22148;-72
2022/11/14 06:20:09;;;;;;;20.03;14.53;;;;;;;7.84;86.66;101845.06;6038896;29;20238;-71
2022/11/14 06:23:50;;;;;;;14.90;11.47;;;;;;;7.93;86.87;101839.09;6045391;29;20713;-72
2022/11/14 06:27:29;;;;;;;20.30;13.60;;;;;;;7.81;87.12;101835.38;6039693;29;20233;-72
2022/11/14 06:31:08;;;;;;;21.97;11.83;;;;;;;7.87;87.35;101837.69;6025963;29;20250;-73
2022/11/14 06:34:47;;;;;;;20.90;12.47;;;;;;;7.96;86.55;101845.16;6037634;29;20226;-73
2022/11/14 06:38:31;;;;;;;18.30;10.67;;;;;;;7.75;86.42;101830.38;6031787;29;20269;-72
2022/11/14 06:42:10;;;;;;;20.00;14.77;;;;;;;7.81;87.24;101832.69;6025278;29;20230;-72
2022/11/14 06:45:49;;;;;;;19.07;10.80;;;;;;;7.84;86.62;101829.81;6025007;29;20241;-72
2022/11/14 06:49:28;;;;;;;21.97;14.33;;;;;;;7.77;86.69;101833.84;6033474;29;20237;-71
2022/11/14 06:53:07;;;;;;;20.30;13.13;;;;;;;7.78;87.44;101838.25;6041969;29;20248;-71
2022/11/14 06:56:49;;;;;;;19.20;12.60;;;;;;;7.81;87.24;101829.13;6026548;29;20320;-72
2022/11/14 07:00:28;;;;;;;24.37;15.23;;;;;;;7.75;87.34;101830.38;6030875;29;20738;-72
2022/11/14 07:04:09;;;;;;;24.97;14.03;;;;;;;7.67;87.18;101838.06;6023560;29;20237;-73
2022/11/14 07:07:48;;;;;;;18.53;13.53;;;;;;;7.72;87.56;101829.69;6029375;29;20295;-72
2022/11/14 07:11:28;;;;;;;28.93;14.83;;;;;;;7.67;87.01;101829.13;6032211;29;20250;-72
2022/11/14 07:15:10;;;;;;;20.63;12.77;;;;;;;7.69;86.57;101824.53;6034826;29;20531;-72
2022/11/14 07:18:50;;;;;;;17.50;13.43;;;;;;;7.75;86.53;101826.84;6041179;29;20238;-71
2022/11/14 07:22:29;;;;;;;21.60;12.03;;;;;;;7.74;87.16;101823.28;6031219;29;21075;-72
2022/11/14 07:26:11;;;;;;;22.47;12.97;;;;;;;7.59;86.63;101828.75;6019965;29;20242;-72
2022/11/14 07:29:50;;;;;;;23.03;15.30;;;;;;;7.70;86.21;101836.97;6029201;29;20230;-72
2022/11/14 07:33:32;;;;;;;22.67;14.13;;;;;;;7.62;86.76;101837.47;6025533;29;20238;-72
2022/11/14 07:37:11;;;;;;;22.73;14.43;;;;;;;8.20;91.07;101850.78;6023233;29;20230;-73
2022/11/14 07:40:54;;;;;;;21.47;15.07;;;;;;;8.42;93.15;101845.84;6030993;29;20567;-73
2022/11/14 07:44:33;;;;;;;20.27;13.77;;;;;;;8.49;88.77;101841.78;6023358;29;20226;-73
2022/11/14 07:48:13;;;;;;;19.63;11.03;;;;;;;9.14;91.37;101837.41;6028197;29;20269;-73
2022/11/14 07:51:53;;;;;;;22.03;11.67;;;;;;;9.10;88.03;101827.84;6028743;29;20233;-73
2022/11/14 07:55:35;;;;;;;20.07;13.90;;;;;;;8.16;84.66;101825.09;6035944;29;20234;-72
2022/11/14 07:59:14;;;;;;;20.00;14.13;;;;;;;7.74;86.01;101830.50;6032228;29;20281;-72
2022/11/14 08:02:53;;;;;;;19.77;12.77;;;;;;;7.67;85.64;101831.81;6031852;29;20241;-71
2022/11/14 08:06:33;;;;;;;20.10;12.70;;;;;;;7.66;86.05;101822.03;6025915;29;20562;-71
2022/11/14 08:10:14;;;;;;;20.77;12.50;;;;;;;7.90;84.62;101821.41;6033970;29;20264;-70
2022/11/14 08:13:53;;;;;;;21.67;12.23;;;;;;;8.05;85.01;101819.56;6032847;29;20275;-71
2022/11/14 08:17:33;;;;;;;21.30;12.43;;;;;;;8.04;84.21;101807.97;6031882;29;20229;-71
2022/11/14 08:21:12;;;;;;;24.93;13.87;;;;;;;7.87;84.63;101816.19;6028370;29;20261;-71
2022/11/14 08:24:51;;;;;;;24.50;15.17;;;;;;;8.01;84.41;101802.75;6047232;29;20229;-71
2022/11/14 08:28:32;;;;;;;20.13;13.97;;;;;;;7.85;85.15;101801.16;6027886;29;20265;-71
2022/11/14 08:32:11;;;;;;;18.80;15.00;;;;;;;7.71;85.43;101818.13;6013429;29;20257;-71
2022/11/14 08:35:51;;;;;;;23.73;12.53;;;;;;;7.77;85.66;101811.50;6029323;29;20637;-72
2022/11/14 08:39:31;;;;;;;22.33;14.07;;;;;;;7.85;85.38;101804.69;6032829;29;20262;-71
2022/11/14 08:43:10;;;;;;;24.57;14.67;;;;;;;7.87;85.69;101818.88;6020998;29;20233;-74
2022/11/14 08:46:51;;;;;;;24.50;14.13;;;;;;;7.87;85.44;101820.69;6030592;29;20649;-71
2022/11/14 08:50:31;;;;;;;19.67;13.33;;;;;;;7.71;85.32;101811.88;6027371;29;20262;-71
2022/11/14 08:54:10;;;;;;;21.70;12.63;;;;;;;7.62;85.81;101804.41;6016929;29;20609;-73
2022/11/14 08:57:53;;;;;;;20.07;12.17;;;;;;;7.65;85.87;101815.81;6026704;29;20229;-72
2022/11/14 09:01:32;;;;;;;19.83;11.50;;;;;;;7.72;86.07;101809.09;6025486;29;21354;-72
2022/11/14 09:05:13;;;;;;;20.50;12.03;;;;;;;7.59;86.43;101797.41;6034409;29;20306;-73
2022/11/14 09:08:52;;;;;;;19.10;12.40;;;;;;;7.68;85.37;101799.50;6034667;29;20234;-73
2022/11/14 09:12:32;;;;;;;22.20;12.17;;;;;;;7.84;85.14;101796.75;6022929;29;20234;-73
2022/11/14 09:16:11;;;;;;;18.33;12.47;;;;;;;7.70;85.29;101799.41;6018130;29;20252;-73
2022/11/14 09:19:51;;;;;;;19.30;12.57;;;;;;;7.66;85.77;101797.88;6037666;29;21234;-73
2022/11/14 09:23:31;;;;;;;21.33;13.90;;;;;;;7.69;85.91;101795.88;6036483;29;20667;-72
2022/11/14 09:27:11;;;;;;;25.07;16.33;;;;;;;7.80;85.44;101800.59;6025297;29;20242;-73
2022/11/14 09:30:50;;;;;;;20.67;14.90;;;;;;;7.95;85.20;101799.59;6031318;29;20638;-75
2022/11/14 09:34:30;;;;;;;19.00;13.10;;;;;;;7.97;85.26;101803.06;6028060;29;20233;-74
2022/11/14 09:38:11;;;;;;;21.63;13.33;;;;;;;7.75;86.25;101791.94;6035574;29;20262;-75
2022/11/14 09:42:10;;;;;;;26.50;15.10;;;;;;;7.86;86.33;101790.31;6032039;29;20328;-74
2022/11/14 09:45:52;;;;;;;25.33;14.50;;;;;;;7.81;85.74;101770.97;6042915;29;20230;-74
2022/11/14 09:49:37;;;;;;;19.80;12.37;;;;;;;8.09;84.88;101768.22;6042033;29;20242;-73
2022/11/14 09:53:23;;;;;;;24.13;11.43;;;;;;;8.22;84.95;101773.66;6047987;29;20229;-73
2022/11/14 09:57:04;;;;;;;19.43;14.13;;;;;;;8.28;84.26;101762.56;6040012;29;20257;-72
2022/11/14 10:00:50;;;;;;;23.67;13.03;;;;;;;8.28;83.92;101767.09;6032753;29;20234;-73
2022/11/14 10:04:45;;;;;;;19.13;12.50;;;;;;;7.98;85.32;101770.75;6025031;29;20233;-73
2022/11/14 10:08:41;;;;;;;22.90;14.87;;;;;;;8.05;85.05;101781.97;6027726;29;20253;-73
2022/11/14 10:12:28;;;;;;;18.93;14.80;;;;;;;8.01;85.02;101770.53;6030101;29;20229;-73
2022/11/14 10:16:15;;;;;;;22.27;13.70;;;;;;;8.10;85.19;101769.09;6025664;29;20675;-73
2022/11/14 10:20:01;;;;;;;23.70;13.87;;;;;;;8.08;84.89;101757.59;6043696;29;20234;-73
2022/11/14 10:23:54;;;;;;;25.93;17.23;;;;;;;7.82;85.20;101756.56;6032374;29;20238;-73
2022/11/14 10:27:42;;;;;;;25.63;15.20;;;;;;;7.87;85.21;101742.84;6036900;29;20516;-72
2022/11/14 10:31:33;;;;;;;24.17;13.30;;;;;;;8.12;84.56;101734.94;6028516;29;20687;-72
2022/11/14 10:35:16;;;;;;;20.90;13.07;;;;;;;8.28;83.56;101732.19;6042601;29;20245;-73
2022/11/14 10:39:04;;;;;;;19.83;14.73;;;;;;;8.34;82.84;101721.03;6040698;29;20238;-72
2022/11/14 10:42:49;;;;;;;20.20;11.70;;;;;;;8.17;83.48;101719.41;6039268;29;20229;-73
2022/11/14 10:46:34;;;;;;;15.77;9.77;;;;;;;8.25;83.17;101711.75;6021521;29;20246;-72
2022/11/14 10:50:18;;;;;;;22.23;13.17;;;;;;;8.41;83.05;101708.88;6035471;29;20233;-73
2022/11/14 10:54:02;;;;;;;18.23;10.90;;;;;;;8.32;83.53;101698.78;6047245;29;20604;-72
2022/11/14 10:57:42;;;;;;;17.87;12.27;;;;;;;8.36;82.40;101689.53;6038881;29;20238;-73
2022/11/14 11:01:39;;;;;;;22.27;11.37;;;;;;;8.61;81.35;101685.13;6029227;29;20230;-73
2022/11/14 11:05:20;;;;;;;17.73;11.20;;;;;;;8.69;81.64;101679.22;6042432;29;20302;-73
2022/11/14 11:13:05;;;;;;;18.37;12.17;;;;;;;9.27;79.19;101655.38;6033822;29;20257;-73
2022/11/14 11:16:46;;;;;;;15.43;10.57;;;;;;;11.08;73.29;101641.63;6029637;29;20952;-72
2022/11/14 11:20:30;;;;;;;16.13;11.27;;;;;;;11.99;69.33;101631.56;6042765;29;20234;-73
2022/11/14 11:24:09;;;;;;;14.90;10.00;;;;;;;14.84;59.69;101621.31;6033499;29;20242;-73
2022/11/14 11:28:04;;;;;;;15.03;10.97;;;;;;;15.83;56.04;101630.56;6039587;29;20311;-73
2022/11/14 11:31:52;;;;;;;19.47;10.73;;;;;;;17.03;51.66;101607.41;6028087;29;20228;-73
2022/11/14 11:35:31;;;;;;;17.83;10.70;;;;;;;19.48;46.01;101600.28;6034703;29;20230;-73
2022/11/14 11:39:23;;;;;;;14.88;9.95;;;;;;;20.05;43.86;101592.66;6039456;29;20234;-72
2022/11/14 11:43:09;;;;;;;13.20;9.07;;;;;;;20.18;41.95;101581.94;6038212;29;20257;-72
2022/11/14 11:46:55;;;;;;;13.20;9.35;;;;;;;21.68;39.35;101561.69;6028743;29;20245;-72
2022/11/14 11:50:35;;;;;;;13.05;9.52;;;;;;;22.05;39.42;101569.81;6044221;29;20237;-73
2022/11/14 11:54:18;;;;;;;12.10;10.32;;;;;;;21.59;39.39;101551.88;6039310;29;20320;-72
2022/11/14 11:58:03;;;;;;;11.90;10.32;;;;;;;22.61;37.99;101551.59;6045239;29;20603;-72
2022/11/14 12:01:42;;;;;;;13.82;10.02;;;;;;;23.15;36.47;101532.53;6033546;29;20226;-72
2022/11/14 12:05:31;;;;;;;15.35;10.77;;;;;;;22.46;37.02;101553.53;6048776;29;20258;-72
2022/11/14 12:09:17;;;;;;;15.48;10.90;;;;;;;21.06;39.46;101577.69;6042960;29;20435;-72
2022/11/14 12:13:15;;;;;;;12.27;10.32;;;;;;;21.45;39.50;101579.13;6039993;29;20256;-76
2022/11/14 12:17:24;;;;;;;14.93;10.25;;;;;;;21.53;38.77;101589.13;6036885;29;20507;-74
2022/11/14 12:21:12;;;;;;;13.43;11.35;;;;;;;20.78;39.95;101591.09;6045526;29;20253;-74
2022/11/14 12:25:14;;;;;;;14.98;9.13;;;;;;;17.65;46.62;101587.19;6042759;29;20241;-74
2022/11/14 12:29:11;;;;;;;12.13;10.20;;;;;;;15.75;52.59;101594.28;6056890;29;20685;-74
2022/11/14 12:32:56;;;;;;;16.60;12.15;;;;;;;14.57;56.46;101613.06;6036550;29;20439;-73
2022/11/14 12:36:38;;;;;;;12.75;10.13;;;;;;;13.84;58.59;101599.97;6036090;29;20249;-74
2022/11/14 12:40:25;;;;;;;15.13;11.20;;;;;;;13.10;61.40;101595.88;6050221;29;20499;-74
2022/11/14 12:44:19;;;;;;;14.93;10.53;;;;;;;14.00;60.11;101587.59;6041740;29;20237;-74
2022/11/14 12:48:15;;;;;;;19.60;12.97;;;;;;;14.23;59.57;101569.19;6042429;29;20225;-74
2022/11/14 12:51:56;;;;;;;12.83;9.40;;;;;;;14.23;59.01;101570.06;6038783;29;20237;-74
2022/11/14 12:56:01;;;;;;;13.17;9.23;;;;;;;14.57;57.82;101569.66;6037650;29;20249;-74
2022/11/14 12:59:53;;;;;;;12.40;9.73;;;;;;;14.05;59.92;101574.47;6036817;29;20257;-78
2022/11/14 13:03:45;;;;;;;18.00;11.40;;;;;;;13.27;62.37;101570.84;6043300;29;20238;-77
2022/11/14 13:07:38;;;;;;;17.50;11.47;;;;;;;13.21;62.93;101572.25;6053266;29;20624;-77
2022/11/14 13:27:49;;;;;;;18.70;11.77;;;;;;;11.92;67.09;101557.38;6063354;29;20615;-77
2022/11/14 13:31:46;;;;;;;15.77;11.53;;;;;;;11.70;68.49;101561.00;6040690;29;20318;-77
2022/11/14 13:35:57;;;;;;;16.77;10.93;;;;;;;11.78;68.72;101555.84;6056020;29;20226;-77
2022/11/14 13:39:48;;;;;;;17.27;11.57;;;;;;;11.78;68.77;101555.84;6018676;29;20317;-77
2022/11/14 13:43:44;;;;;;;16.93;11.47;;;;;;;11.94;67.85;101559.00;6065361;29;20236;-76
2022/11/14 13:47:47;;;;;;;15.97;11.00;;;;;;;11.96;68.11;101562.41;6048975;29;20233;-77
2022/11/14 13:51:29;;;;;;;18.23;12.13;;;;;;;11.39;69.66;101553.66;6044101;29;20236;-80
2022/11/14 13:55:19;;;;;;;18.47;10.80;;;;;;;11.25;70.71;101553.94;6058576;29;20225;-76
2022/11/14 13:59:30;;;;;;;24.97;12.83;;;;;;;11.24;70.82;101549.53;6054330;29;20242;-75
2022/11/14 14:03:27;;;;;;;17.17;11.33;;;;;;;10.98;71.59;101554.31;6048007;29;20300;-76
2022/11/14 14:07:16;;;;;;;15.63;12.10;;;;;;;11.05;72.17;101539.38;6048243;29;20324;-76
2022/11/14 14:11:08;;;;;;;16.57;12.13;;;;;;;10.88;72.29;101531.75;6057569;29;20233;-77
2022/11/14 14:15:03;;;;;;;20.13;13.30;;;;;;;10.93;72.92;101529.53;6051417;29;20336;-78
2022/11/14 14:18:55;;;;;;;17.47;10.43;;;;;;;10.79;72.93;101526.22;6059988;29;20332;-77
2022/11/14 14:22:41;;;;;;;15.10;9.53;;;;;;;10.52;74.13;101528.38;6049187;29;20634;-77
2022/11/14 14:26:31;;;;;;;18.33;10.93;;;;;;;10.53;74.36;101531.00;6045106;29;20230;-78
2022/11/14 14:30:14;;;;;;;16.67;11.67;;;;;;;10.41;74.92;101530.09;6051481;29;20235;-81
2022/11/14 14:33:54;;;;;;;16.27;12.00;;;;;;;10.36;75.19;101528.75;6029862;29;20253;-76
2022/11/14 14:37:33;;;;;;;17.20;11.13;;;;;;;10.32;74.94;101521.88;6036272;29;20328;-77
2022/11/14 14:41:14;;;;;;;21.00;11.67;;;;;;;10.36;74.54;101528.75;6026252;29;20233;-78
2022/11/14 14:44:56;;;;;;;19.73;15.00;;;;;;;10.38;75.43;101516.88;6052621;29;20245;-78
2022/11/14 14:48:40;;;;;;;15.50;10.10;;;;;;;10.25;75.43;101516.09;6042764;29;20246;-78
2022/11/14 14:52:21;;;;;;;15.67;11.43;;;;;;;10.26;75.43;101506.19;6048045;29;20292;-80
2022/11/14 14:56:02;;;;;;;22.30;11.00;;;;;;;10.29;75.57;101506.78;6043774;29;20237;-78
2022/11/14 14:59:41;;;;;;;14.67;10.60;;;;;;;10.25;75.65;101490.97;6029789;29;20237;-77
2022/11/14 15:03:24;;;;;;;16.20;10.83;;;;;;;10.25;75.77;101494.53;6049861;29;20232;-78
2022/11/14 15:07:04;;;;;;;15.80;10.63;;;;;;;10.21;75.69;101502.97;6036397;29;20233;-79
2022/11/14 15:10:44;;;;;;;16.87;10.23;;;;;;;10.12;76.37;101492.88;6039889;29;20226;-78
2022/11/14 15:14:27;;;;;;;18.60;11.47;;;;;;;10.01;76.46;101482.06;6037080;29;20275;-77
2022/11/14 15:18:14;;;;;;;17.10;12.03;;;;;;;9.92;77.35;101483.63;6038227;29;20229;-80
2022/11/14 15:22:05;;;;;;;19.40;13.47;;;;;;;9.89;77.81;101486.53;6038264;29;20262;-77
2022/11/14 15:25:45;;;;;;;20.53;12.70;;;;;;;9.82;77.69;101496.09;6045105;29;20241;-78
2022/11/14 15:29:27;;;;;;;13.60;9.33;;;;;;;9.98;82.27;101484.97;6041285;29;20443;-78
2022/11/14 15:33:26;;;;;;;14.63;10.87;;;;;;;10.28;79.90;101490.75;6045466;29;20808;-81
2022/11/14 15:37:20;;;;;;;18.17;13.87;;;;;;;9.91;78.08;101481.91;6034905;29;20232;-75
2022/11/14 15:41:19;;;;;;;22.27;13.60;;;;;;;9.75;78.91;101485.88;6047281;29;20264;-77
2022/11/14 15:44:58;;;;;;;19.83;13.03;;;;;;;9.54;79.59;101489.22;6036699;29;20262;-77
2022/11/14 15:48:41;;;;;;;25.27;13.50;;;;;;;9.51;79.98;101489.44;6054934;29;20233;-77
2022/11/14 15:52:26;;;;;;;17.03;10.70;;;;;;;9.35;80.15;101494.25;6042629;29;20244;-77
2022/11/14 15:56:05;;;;;;;15.63;11.23;;;;;;;9.33;80.40;101488.13;6048688;29;20313;-76
2022/11/14 15:59:45;;;;;;;13.90;11.27;;;;;;;9.37;80.42;101486.91;6030953;29;20245;-76
2022/11/14 16:03:25;;;;;;;16.10;11.63;;;;;;;9.37;80.17;101486.91;6038514;29;20261;-75
2022/11/14 16:07:04;;;;;;;21.17;12.40;;;;;;;9.29;80.60;101481.25;6032050;29;20241;-77
2022/11/14 16:10:45;;;;;;;22.23;12.63;;;;;;;9.28;81.11;101470.59;6045286;29;20229;-77
2022/11/14 16:14:24;;;;;;;16.30;11.93;;;;;;;9.24;81.51;101469.13;6048373;29;20867;-77
2022/11/14 16:18:04;;;;;;;23.60;12.97;;;;;;;9.21;81.40;101467.50;6053455;29;20237;-77
2022/11/14 16:21:44;;;;;;;18.70;11.93;;;;;;;9.18;81.24;101467.72;6038269;29;20233;-77
2022/11/14 16:25:25;;;;;;;12.30;11.10;;;;;;;9.10;81.32;101455.78;6051894;29;20250;-77
2022/11/14 16:29:06;;;;;;;20.00;11.27;;;;;;;9.11;81.50;101453.03;6052038;29;20245;-77
2022/11/14 16:32:48;;;;;;;14.87;10.63;;;;;;;9.13;81.88;101451.06;6036036;29;21113;-77
2022/11/14 16:36:27;;;;;;;15.93;12.33;;;;;;;9.08;81.70;101455.06;6035090;29;20249;-77
2022/11/14 16:40:11;;;;;;;19.13;12.33;;;;;;;9.08;81.59;101447.84;6051033;29;20245;-77
2022/11/14 16:43:54;;;;;;;18.83;12.13;;;;;;;9.06;81.85;101443.56;6051428;29;20266;-76
2022/11/14 16:47:35;;;;;;;17.10;10.17;;;;;;;9.01;82.09;101441.19;6041924;29;20221;-77
2022/11/14 16:51:14;;;;;;;12.63;9.23;;;;;;;9.02;81.80;101437.53;6032122;29;20238;-78
2022/11/14 16:54:54;;;;;;;18.70;10.47;;;;;;;8.96;82.43;101446.06;6048120;29;20230;-77
2022/11/14 16:58:33;;;;;;;14.57;11.87;;;;;;;8.90;82.13;101445.66;6047356;29;21247;-76
2022/11/14 17:02:15;;;;;;;21.17;12.33;;;;;;;8.81;82.90;101444.47;6029929;29;20233;-77
2022/11/14 17:05:56;;;;;;;13.73;11.07;;;;;;;8.83;82.50;101440.72;6035805;29;20239;-81
2022/11/14 17:09:36;;;;;;;16.93;12.17;;;;;;;8.80;83.48;101440.09;6038616;29;20687;-78
2022/11/14 17:13:16;;;;;;;15.63;11.23;;;;;;;8.86;83.00;101435.09;6036347;29;20257;-80
2022/11/14 17:16:56;;;;;;;14.03;11.23;;;;;;;8.81;83.13;101437.28;6034825;29;20242;-80
2022/11/14 17:20:37;;;;;;;19.23;11.23;;;;;;;8.80;83.52;101434.72;6036091;29;20648;-80
2022/11/14 17:24:18;;;;;;;15.70;11.33;;;;;;;8.79;83.46;101431.16;6043842;29;20261;-79